Time;durP1;ratioP1;P1;durP2;ratioP2;P2;SDS_P1;SDS_P2;PMS_P1;PMS_P2;Temp;Humidity;BMP_temperature;BMP_pressure;BME280_temperature;BME280_humidity;BME280_pressure;Samples;Min_cycle;Max_cycle;Signal;HPM_P1;HPM_P2
2021/03/24 00:00:23;;;;;;;15.77;8.57;;;3.00;99.90;;;;;;4978560;28;20030;-82
2021/03/24 00:02:49;;;;;;;20.35;9.57;;;2.90;99.90;;;;;;4978410;28;20385;-82
2021/03/24 00:05:17;;;;;;;14.10;8.30;;;2.60;99.90;;;;;;4960988;28;20058;-81
2021/03/24 00:07:44;;;;;;;15.65;9.02;;;2.30;99.90;;;;;;4960924;28;20023;-81
2021/03/24 00:10:12;;;;;;;13.05;7.90;;;2.50;99.90;;;;;;4961375;28;20035;-82
2021/03/24 00:12:38;;;;;;;17.30;9.15;;;2.70;99.90;;;;;;4960852;28;20026;-81
2021/03/24 00:15:07;;;;;;;12.38;8.00;;;2.70;99.90;;;;;;4978143;28;20030;-82
2021/03/24 00:17:33;;;;;;;13.93;8.82;;;3.10;99.90;;;;;;4960423;28;20501;-82
2021/03/24 00:19:59;;;;;;;10.98;7.65;;;3.10;99.90;;;;;;4960673;28;20034;-81
2021/03/24 00:22:24;;;;;;;15.38;7.97;;;3.10;99.90;;;;;;4978274;28;20499;-81
2021/03/24 00:24:50;;;;;;;13.48;8.77;;;3.00;99.90;;;;;;4977793;28;20026;-81
2021/03/24 00:27:17;;;;;;;15.55;8.13;;;3.00;99.90;;;;;;4977926;28;20019;-82
2021/03/24 00:29:43;;;;;;;12.00;7.65;;;2.90;99.90;;;;;;4977890;28;20042;-81
2021/03/24 00:32:09;;;;;;;14.20;8.48;;;2.90;99.90;;;;;;4960485;28;20022;-81
2021/03/24 00:34:36;;;;;;;15.23;9.13;;;;;;;;;;4960512;28;20113;-81
2021/03/24 00:37:02;;;;;;;14.32;7.80;;;2.40;99.90;;;;;;4960405;28;20364;-82
2021/03/24 00:39:27;;;;;;;14.25;9.05;;;2.40;99.90;;;;;;4977722;28;20085;-81
2021/03/24 00:41:53;;;;;;;14.70;8.68;;;2.10;99.90;;;;;;4977682;28;20077;-81
2021/03/24 00:44:19;;;;;;;15.63;8.30;;;2.00;99.90;;;;;;4977617;28;20363;-82
2021/03/24 00:46:45;;;;;;;13.63;8.07;;;2.10;99.90;;;;;;4960284;28;20031;-81
2021/03/24 00:49:10;;;;;;;16.05;8.77;;;2.20;99.90;;;;;;4960235;28;20019;-82
2021/03/24 00:51:36;;;;;;;14.85;8.25;;;2.10;99.90;;;;;;4977535;28;20026;-81
2021/03/24 00:54:02;;;;;;;15.35;7.95;;;1.80;99.90;;;;;;4976451;28;20133;-82
2021/03/24 00:56:27;;;;;;;12.80;7.80;;;1.90;99.90;;;;;;4977919;28;20034;-82
2021/03/24 00:58:53;;;;;;;16.30;8.02;;;2.40;99.90;;;;;;4960039;28;20023;-81
2021/03/24 01:01:19;;;;;;;15.60;8.25;;;2.70;99.90;;;;;;4960007;28;20478;-81
2021/03/24 01:03:44;;;;;;;14.48;8.35;;;2.80;99.90;;;;;;4960194;28;20030;-81
2021/03/24 01:06:10;;;;;;;12.88;7.95;;;2.50;99.90;;;;;;4959750;28;20026;-81
2021/03/24 01:08:36;;;;;;;13.02;7.45;;;2.50;99.90;;;;;;4959859;28;20070;-81
2021/03/24 01:11:03;;;;;;;13.35;7.35;;;2.90;99.90;;;;;;4959795;28;20031;-81
2021/03/24 01:13:29;;;;;;;12.55;7.60;;;3.00;99.90;;;;;;4977331;28;20485;-81
2021/03/24 01:15:54;;;;;;;14.27;8.57;;;3.10;99.90;;;;;;4959606;28;20035;-81
2021/03/24 01:18:22;;;;;;;15.77;8.18;;;2.50;99.90;;;;;;4959513;28;20055;-82
2021/03/24 01:20:48;;;;;;;16.45;8.43;;;2.70;99.90;;;;;;4959651;28;20517;-82
2021/03/24 01:23:14;;;;;;;17.35;8.38;;;3.00;99.90;;;;;;4959600;28;20054;-81
2021/03/24 01:25:40;;;;;;;16.65;9.00;;;2.80;99.90;;;;;;4959480;28;20052;-82
2021/03/24 01:28:10;;;;;;;15.75;8.23;;;2.70;99.90;;;;;;4959434;28;20109;-81
2021/03/24 01:30:36;;;;;;;19.38;8.90;;;2.60;99.90;;;;;;4959453;28;20521;-81
2021/03/24 01:33:03;;;;;;;14.55;9.02;;;2.60;99.90;;;;;;4959413;28;20023;-81
2021/03/24 01:35:29;;;;;;;16.30;9.10;;;2.40;99.90;;;;;;4976959;28;20494;-81
2021/03/24 01:37:55;;;;;;;15.15;7.63;;;2.60;99.90;;;;;;4976702;28;20026;-81
2021/03/24 01:40:27;;;;;;;15.10;8.07;;;2.60;99.90;;;;;;4959262;28;20042;-81
2021/03/24 01:43:00;;;;;;;17.45;7.80;;;2.90;99.90;;;;;;4976882;28;20031;-81
2021/03/24 01:45:26;;;;;;;12.50;7.90;;;2.90;99.90;;;;;;4959147;28;20053;-81
2021/03/24 01:47:56;;;;;;;12.70;8.25;;;3.00;99.90;;;;;;4959137;28;20027;-81
2021/03/24 01:50:31;;;;;;;13.43;7.32;;;3.00;99.90;;;;;;4959087;28;20023;-81
2021/03/24 01:52:57;;;;;;;12.23;7.65;;;2.90;99.90;;;;;;4959081;28;20023;-81
2021/03/24 01:55:24;;;;;;;15.00;7.57;;;2.80;99.90;;;;;;4976367;28;20041;-81
2021/03/24 01:57:50;;;;;;;13.95;7.85;;;3.00;99.90;;;;;;4958885;28;20034;-81
2021/03/24 02:00:19;;;;;;;14.13;8.52;;;2.70;99.90;;;;;;4958942;28;20386;-81
2021/03/24 02:02:45;;;;;;;14.70;8.13;;;2.80;99.90;;;;;;4958828;28;20062;-81
2021/03/24 02:05:11;;;;;;;12.45;7.60;;;2.60;99.90;;;;;;4975885;28;20423;-81
2021/03/24 02:07:49;;;;;;;15.15;8.70;;;2.70;99.90;;;;;;4976394;28;20023;-81
2021/03/24 02:10:17;;;;;;;14.70;8.27;;;2.70;99.90;;;;;;4976074;28;20434;-81
2021/03/24 02:12:52;;;;;;;14.70;8.18;;;2.70;99.90;;;;;;4958688;28;20082;-81
2021/03/24 02:15:27;;;;;;;13.43;8.02;;;2.30;99.90;;;;;;4958656;28;20030;-80
2021/03/24 02:17:53;;;;;;;13.68;8.35;;;2.40;99.90;;;;;;4958418;28;20494;-80
2021/03/24 02:20:28;;;;;;;15.55;8.48;;;2.30;99.90;;;;;;4975733;28;20035;-80
2021/03/24 02:23:28;;;;;;;15.15;7.57;;;2.50;99.90;;;;;;4958575;28;20058;-80
2021/03/24 02:26:07;;;;;;;14.93;8.38;;;2.80;99.90;;;;;;4953589;28;20486;-81
2021/03/24 02:28:34;;;;;;;13.77;7.28;;;2.80;99.90;;;;;;4975718;28;20098;-80
2021/03/24 02:31:00;;;;;;;16.35;8.57;;;2.80;99.90;;;;;;4958286;28;20482;-80
2021/03/24 02:33:39;;;;;;;14.63;8.75;;;2.80;99.90;;;;;;4975650;28;20030;-80
2021/03/24 02:36:09;;;;;;;11.60;7.72;;;2.50;99.90;;;;;;4975571;28;20054;-80
2021/03/24 02:38:37;;;;;;;18.90;8.45;;;2.60;99.90;;;;;;4975492;28;20034;-80
2021/03/24 02:41:04;;;;;;;11.18;7.60;;;2.50;99.90;;;;;;4958373;28;20046;-81
2021/03/24 02:43:32;;;;;;;14.25;7.60;;;2.10;99.90;;;;;;4958129;28;20125;-81
2021/03/24 02:46:00;;;;;;;14.68;7.88;;;2.10;99.90;;;;;;4957979;28;20031;-82
2021/03/24 02:48:30;;;;;;;13.98;8.25;;;2.50;99.90;;;;;;4975302;28;20027;-81
2021/03/24 02:50:58;;;;;;;17.58;8.73;;;2.40;99.90;;;;;;4958038;28;20049;-80
2021/03/24 02:53:26;;;;;;;13.02;7.80;;;2.60;99.90;;;;;;4957809;28;20117;-82
2021/03/24 02:55:56;;;;;;;13.07;7.85;;;2.70;99.90;;;;;;4957859;28;20026;-81
2021/03/24 02:58:22;;;;;;;14.02;7.75;;;2.60;99.90;;;;;;4975775;28;20054;-81
2021/03/24 03:00:48;;;;;;;14.18;8.18;;;2.60;99.90;;;;;;4975175;28;20102;-83
2021/03/24 03:03:22;;;;;;;14.73;7.30;;;2.70;99.90;;;;;;4957886;28;20122;-81
2021/03/24 03:05:49;;;;;;;15.45;7.88;;;2.90;99.90;;;;;;4957754;28;20027;-81
2021/03/24 03:08:26;;;;;;;12.35;7.40;;;3.00;99.90;;;;;;4957790;28;20029;-81
2021/03/24 03:11:03;;;;;;;12.05;7.40;;;3.10;99.90;;;;;;4957742;28;20479;-80
2021/03/24 03:14:03;;;;;;;12.88;7.63;;;3.00;99.90;;;;;;4957689;28;20484;-81
2021/03/24 03:16:46;;;;;;;13.57;7.68;;;2.90;99.90;;;;;;4953764;28;20060;-83
2021/03/24 03:19:20;;;;;;;14.00;8.52;;;2.60;99.90;;;;;;4957561;28;20042;-81
2021/03/24 03:21:53;;;;;;;12.35;7.57;;;2.60;99.90;;;;;;4974904;28;20026;-80
2021/03/24 03:24:22;;;;;;;15.68;8.80;;;2.50;99.90;;;;;;4957785;28;20038;-81
2021/03/24 03:26:53;;;;;;;11.05;7.75;;;2.50;99.90;;;;;;4974738;28;20033;-81
2021/03/24 03:29:21;;;;;;;12.52;8.05;;;2.40;99.90;;;;;;4957441;28;20478;-81
2021/03/24 03:31:50;;;;;;;13.00;7.78;;;2.10;99.90;;;;;;4957360;28;20486;-81
2021/03/24 03:34:19;;;;;;;18.35;8.60;;;2.30;99.90;;;;;;4957418;28;20054;-81
2021/03/24 03:36:53;;;;;;;16.30;8.27;;;2.10;99.90;;;;;;4974704;28;20471;-81
2021/03/24 03:39:22;;;;;;;14.90;8.93;;;1.80;99.90;;;;;;4974728;28;20019;-81
2021/03/24 03:41:48;;;;;;;14.85;8.73;;;1.50;99.90;;;;;;4957365;28;20030;-81
2021/03/24 03:44:15;;;;;;;15.98;8.73;;;1.40;99.90;;;;;;4957305;28;20073;-81
2021/03/24 03:46:50;;;;;;;20.20;9.60;;;1.30;99.90;;;;;;4974532;28;20433;-80
2021/03/24 03:49:17;;;;;;;14.93;8.90;;;1.20;99.90;;;;;;4974589;28;20022;-80
2021/03/24 03:52:08;;;;;;;13.57;8.18;;;1.20;99.90;;;;;;4957273;28;20065;-83
2021/03/24 03:54:43;;;;;;;18.98;8.80;;;1.00;99.90;;;;;;4957243;28;20386;-82
2021/03/24 03:57:23;;;;;;;13.60;9.00;;;0.90;99.90;;;;;;4974586;28;20019;-81
2021/03/24 04:00:13;;;;;;;13.27;8.10;;;0.60;99.90;;;;;;4957265;28;20027;-80
2021/03/24 04:02:46;;;;;;;15.60;8.20;;;0.80;99.90;;;;;;4957134;28;20106;-80
2021/03/24 04:05:18;;;;;;;17.63;9.03;;;1.00;99.90;;;;;;4956959;28;20117;-82
2021/03/24 04:07:54;;;;;;;12.07;8.05;;;1.20;99.90;;;;;;4974420;28;20490;-82
2021/03/24 04:10:22;;;;;;;18.45;9.40;;;1.50;99.90;;;;;;4957095;28;20027;-82
2021/03/24 04:12:48;;;;;;;15.18;9.07;;;1.60;99.90;;;;;;4957007;28;20027;-82
2021/03/24 04:15:19;;;;;;;16.67;9.50;;;1.20;99.90;;;;;;4957096;28;20092;-82
2021/03/24 04:17:54;;;;;;;17.17;8.88;;;0.90;99.90;;;;;;4956798;28;20442;-82
2021/03/24 04:20:22;;;;;;;15.60;8.98;;;0.90;99.90;;;;;;4957016;28;20394;-82
2021/03/24 04:22:52;;;;;;;21.42;9.95;;;0.90;99.90;;;;;;4957010;28;20030;-81
2021/03/24 04:25:31;;;;;;;17.85;9.38;;;1.10;99.90;;;;;;4956867;28;20031;-82
2021/03/24 04:28:01;;;;;;;17.35;9.38;;;0.60;99.90;;;;;;4975858;28;20027;-81
2021/03/24 04:30:36;;;;;;;19.27;9.73;;;0.40;99.90;;;;;;4960588;28;20075;-80
2021/03/24 04:33:02;;;;;;;13.57;8.93;;;0.20;99.90;;;;;;4960603;28;20052;-80
2021/03/24 04:35:28;;;;;;;14.43;7.90;;;0.60;99.90;;;;;;4960984;28;20034;-81
2021/03/24 04:37:57;;;;;;;14.70;8.82;;;0.90;99.90;;;;;;4960372;28;20130;-80
2021/03/24 04:40:32;;;;;;;12.77;7.97;;;0.80;99.90;;;;;;4960377;28;20023;-80
2021/03/24 04:43:03;;;;;;;14.98;8.38;;;1.10;99.90;;;;;;4977744;28;20033;-80
2021/03/24 04:45:42;;;;;;;14.05;8.20;;;1.30;99.90;;;;;;4960240;28;20453;-82
2021/03/24 04:48:20;;;;;;;12.02;8.13;;;1.70;99.90;;;;;;4960182;28;20382;-80
2021/03/24 04:51:09;;;;;;;13.57;7.07;;;1.80;99.90;;;;;;4960185;28;20521;-82
2021/03/24 04:53:47;;;;;;;15.55;8.43;;;1.80;99.90;;;;;;4960161;28;20027;-80
2021/03/24 04:56:17;;;;;;;12.88;7.68;;;1.70;99.90;;;;;;4960175;28;20026;-80
2021/03/24 04:58:50;;;;;;;13.65;8.05;;;1.80;99.90;;;;;;4960113;28;20030;-80
2021/03/24 05:01:19;;;;;;;13.90;8.20;;;1.80;99.90;;;;;;4960007;28;20031;-80
2021/03/24 05:03:48;;;;;;;13.75;7.53;;;1.50;99.90;;;;;;4960045;28;20029;-83
2021/03/24 05:06:31;;;;;;;14.02;8.50;;;1.60;99.90;;;;;;4959808;28;20033;-82
2021/03/24 05:08:58;;;;;;;18.92;8.65;;;1.90;99.90;;;;;;4959949;28;20023;-83
2021/03/24 05:12:03;;;;;;;13.63;8.02;;;2.00;99.90;;;;;;4959808;28;20112;-83
2021/03/24 05:14:31;;;;;;;11.67;6.77;;;2.20;99.90;;;;;;4864643;29;20062;-83
2021/03/24 05:17:25;;;;;;;19.35;10.43;;;1.90;99.90;;;;;;4879830;29;20065;-83
2021/03/24 05:19:56;;;;;;;21.17;9.82;;;1.70;99.90;;;;;;4926359;28;20031;-81
2021/03/24 05:22:25;;;;;;;21.48;10.07;;;1.60;99.90;;;;;;4977024;28;20070;-84
2021/03/24 05:24:56;;;;;;;20.38;9.85;;;1.80;99.90;;;;;;4959517;28;20027;-83
2021/03/24 05:27:45;;;;;;;16.40;8.93;;;2.00;99.90;;;;;;4959680;28;20034;-84
2021/03/24 05:30:32;;;;;;;18.65;9.60;;;2.10;99.90;;;;;;4976878;28;20026;-84
2021/03/24 05:33:26;;;;;;;23.90;9.05;;;2.00;99.90;;;;;;4959365;28;20433;-81
2021/03/24 05:36:03;;;;;;;17.75;8.73;;;2.00;99.90;;;;;;4959999;28;20398;-84
2021/03/24 05:38:36;;;;;;;16.45;8.38;;;2.30;99.90;;;;;;4959527;28;20038;-84
2021/03/24 05:41:36;;;;;;;18.92;8.75;;;2.40;99.90;;;;;;4976133;28;20074;-84
2021/03/24 05:44:41;;;;;;;18.00;9.20;;;2.30;99.90;;;;;;4938995;28;20039;-84
2021/03/24 05:47:35;;;;;;;15.95;9.23;;;1.90;99.90;;;;;;4958407;28;20039;-84
2021/03/24 05:50:19;;;;;;;13.00;7.75;;;1.70;99.90;;;;;;4959138;28;20146;-84
2021/03/24 05:53:06;;;;;;;14.25;9.02;;;1.80;99.90;;;;;;4959099;28;20035;-82
2021/03/24 05:55:58;;;;;;;14.95;8.77;;;1.80;99.90;;;;;;4976435;28;20478;-83
2021/03/24 05:58:48;;;;;;;16.05;9.57;;;2.00;99.90;;;;;;4958956;28;20138;-82
2021/03/24 06:01:38;;;;;;;13.50;8.80;;;1.90;99.90;;;;;;4958878;28;20553;-83
2021/03/24 06:04:19;;;;;;;15.27;8.95;;;1.70;99.90;;;;;;4958833;28;20058;-81
2021/03/24 06:06:53;;;;;;;13.80;8.70;;;2.20;99.90;;;;;;4975972;28;20031;-81
2021/03/24 06:09:32;;;;;;;19.67;10.90;;;2.20;99.90;;;;;;4958738;28;20027;-81
2021/03/24 06:12:16;;;;;;;15.27;9.20;;;1.80;99.90;;;;;;4958716;28;20026;-83
2021/03/24 06:15:06;;;;;;;18.20;9.25;;;1.90;99.90;;;;;;4958707;28;20054;-83
2021/03/24 06:17:31;;;;;;;16.33;9.50;;;2.20;99.90;;;;;;4958335;28;20050;-83
2021/03/24 06:20:16;;;;;;;15.50;9.15;;;2.40;99.90;;;;;;4958446;28;20019;-83
2021/03/24 06:22:57;;;;;;;19.52;10.05;;;2.60;99.90;;;;;;4958547;28;20019;-83
2021/03/24 06:25:35;;;;;;;16.52;9.80;;;2.60;99.90;;;;;;4958487;28;20479;-83
2021/03/24 06:28:13;;;;;;;16.08;9.82;;;2.50;99.90;;;;;;4975784;28;20019;-83
2021/03/24 06:31:02;;;;;;;14.73;8.45;;;2.50;99.90;;;;;;4958404;28;20486;-83
2021/03/24 06:33:49;;;;;;;18.48;10.65;;;2.70;99.90;;;;;;4958369;28;20488;-83
2021/03/24 06:36:56;;;;;;;19.08;9.98;;;2.90;99.90;;;;;;4958278;28;20050;-83
2021/03/24 06:39:36;;;;;;;33.22;13.48;;;2.70;99.90;;;;;;4958106;28;20035;-83
2021/03/24 06:42:20;;;;;;;20.70;10.98;;;2.30;99.90;;;;;;4958186;28;20031;-84
2021/03/24 06:44:58;;;;;;;15.57;9.45;;;2.20;99.90;;;;;;4958041;28;20023;-84
2021/03/24 06:48:11;;;;;;;19.73;10.68;;;2.40;99.90;;;;;;4975481;28;20023;-84
2021/03/24 06:51:15;;;;;;;19.50;10.63;;;2.70;99.90;;;;;;4889770;28;20037;-84
2021/03/24 06:54:08;;;;;;;19.80;10.07;;;2.90;99.90;;;;;;4926151;28;20429;-84
2021/03/24 06:56:59;;;;;;;18.30;10.13;;;3.10;99.90;;;;;;4958200;28;20085;-85
2021/03/24 06:59:30;;;;;;;20.23;11.20;;;3.10;99.90;;;;;;4957837;28;20030;-84
2021/03/24 07:02:24;;;;;;;16.77;9.80;;;3.00;99.90;;;;;;4957986;28;20054;-84
2021/03/24 07:05:01;;;;;;;20.15;11.13;;;2.80;99.90;;;;;;4957672;28;20394;-84
2021/03/24 07:08:04;;;;;;;23.75;11.10;;;2.80;99.90;;;;;;4957770;28;20022;-84
2021/03/24 07:11:03;;;;;;;20.90;12.15;;;3.00;99.90;;;;;;4957702;28;20126;-85
2021/03/24 07:13:40;;;;;;;28.35;11.27;;;2.90;99.90;;;;;;4974909;28;20025;-85
2021/03/24 07:16:14;;;;;;;20.13;10.70;;;3.00;99.90;;;;;;4957551;28;20065;-84
2021/03/24 07:19:15;;;;;;;28.73;15.70;;;3.00;99.90;;;;;;4957335;28;20051;-85
2021/03/24 07:21:56;;;;;;;27.08;14.18;;;3.50;99.90;;;;;;4957592;28;20130;-85
2021/03/24 07:24:30;;;;;;;25.35;12.48;;;3.40;99.90;;;;;;4957534;28;20457;-85
2021/03/24 07:27:33;;;;;;;22.65;12.52;;;3.50;99.90;;;;;;4957599;28;20031;-85
2021/03/24 07:30:21;;;;;;;18.48;11.82;;;3.50;99.90;;;;;;4957385;28;20023;-85
2021/03/24 07:32:50;;;;;;;21.20;11.63;;;3.60;99.90;;;;;;4974763;28;20502;-86
2021/03/24 07:35:35;;;;;;;26.40;14.43;;;3.60;99.90;;;;;;4957307;28;20166;-86
2021/03/24 07:38:37;;;;;;;25.33;13.48;;;3.80;99.90;;;;;;4957371;28;20035;-85
2021/03/24 07:41:11;;;;;;;35.40;14.13;;;4.00;99.90;;;;;;4957514;28;20042;-86
2021/03/24 07:43:58;;;;;;;23.63;12.95;;;4.20;99.90;;;;;;4957575;28;20026;-86
2021/03/24 07:46:33;;;;;;;26.05;14.02;;;4.30;99.90;;;;;;4957860;28;20422;-86
2021/03/24 07:49:24;;;;;;;21.98;11.38;;;4.50;99.90;;;;;;4957763;28;20082;-86
2021/03/24 07:52:02;;;;;;;22.25;12.52;;;4.60;99.90;;;;;;4957332;28;20030;-86
2021/03/24 07:54:53;;;;;;;22.50;13.15;;;4.50;99.90;;;;;;4957157;28;20037;-86
2021/03/24 07:57:42;;;;;;;24.13;12.43;;;4.70;99.90;;;;;;4957206;28;20109;-86
2021/03/24 08:00:32;;;;;;;20.70;12.48;;;4.90;99.90;;;;;;4957205;28;20023;-86
2021/03/24 08:03:19;;;;;;;24.20;13.40;;;5.10;99.90;;;;;;4959061;28;20379;-86
2021/03/24 08:06:02;;;;;;;24.95;13.25;;;5.20;99.90;;;;;;4962114;28;20033;-86
2021/03/24 08:08:41;;;;;;;21.60;12.32;;;5.40;99.90;;;;;;4961189;28;20113;-86
2021/03/24 08:11:38;;;;;;;24.05;13.50;;;5.60;99.90;;;;;;4961000;28;20449;-86
2021/03/24 08:14:18;;;;;;;21.65;11.43;;;5.70;99.90;;;;;;4955114;28;20031;-86
2021/03/24 08:17:06;;;;;;;23.88;12.63;;;5.90;99.90;;;;;;4960695;28;20030;-86
2021/03/24 08:19:53;;;;;;;24.05;12.57;;;6.10;99.90;;;;;;4960786;28;20045;-86
2021/03/24 08:22:31;;;;;;;16.02;10.38;;;;;;;;;;4960704;28;20414;-86
2021/03/24 08:25:03;;;;;;;16.58;10.63;;;6.60;99.90;;;;;;4961665;28;20469;-86
2021/03/24 08:27:36;;;;;;;22.25;11.63;;;6.80;99.90;;;;;;4977938;28;20033;-87
2021/03/24 08:30:02;;;;;;;19.05;10.70;;;6.90;99.90;;;;;;4960676;28;20367;-86
2021/03/24 08:33:01;;;;;;;21.05;11.57;;;6.70;99.90;;;;;;4960566;28;20038;-86
2021/03/24 08:35:52;;;;;;;20.08;11.23;;;7.00;99.90;;;;;;4960381;28;20038;-85
2021/03/24 08:38:45;;;;;;;19.73;10.93;;;7.10;99.90;;;;;;4961164;28;20077;-86
2021/03/24 08:41:39;;;;;;;23.70;12.13;;;7.30;99.90;;;;;;4925871;28;20046;-86
2021/03/24 08:44:10;;;;;;;22.35;12.15;;;7.50;99.90;;;;;;4960498;28;20042;-86
2021/03/24 08:46:49;;;;;;;20.98;10.82;;;7.70;99.90;;;;;;4960807;28;20038;-87
2021/03/24 08:49:23;;;;;;;19.38;11.32;;;7.60;99.90;;;;;;4960621;28;20043;-87
2021/03/24 08:51:53;;;;;;;21.65;11.98;;;7.80;99.90;;;;;;4959990;28;20026;-87
2021/03/24 08:54:34;;;;;;;18.90;10.70;;;7.90;99.90;;;;;;4960255;28;20103;-87
2021/03/24 08:57:23;;;;;;;18.85;10.13;;;8.00;99.90;;;;;;4959837;28;20030;-86
2021/03/24 09:00:06;;;;;;;15.23;9.02;;;8.20;99.90;;;;;;4976948;28;20471;-86
2021/03/24 09:02:35;;;;;;;14.50;8.60;;;;;;;;;;4960117;28;20118;-87
2021/03/24 09:05:20;;;;;;;11.38;7.85;;;8.60;99.90;;;;;;4977102;28;20118;-86
2021/03/24 09:08:37;;;;;;;17.10;9.07;;;8.80;99.90;;;;;;4959535;28;20478;-86
2021/03/24 09:11:32;;;;;;;13.90;9.00;;;8.90;99.90;;;;;;4923434;28;20039;-86
2021/03/24 09:14:07;;;;;;;18.17;10.50;;;9.30;99.90;;;;;;4958799;28;20023;-86
2021/03/24 09:16:56;;;;;;;20.73;11.48;;;9.20;99.90;;;;;;4959177;28;20035;-86
2021/03/24 09:19:43;;;;;;;24.00;11.30;;;9.20;99.90;;;;;;4976866;28;20447;-86
2021/03/24 09:22:30;;;;;;;12.50;8.90;;;9.20;99.90;;;;;;4976383;28;20471;-86
2021/03/24 09:25:24;;;;;;;20.75;11.20;;;9.30;99.90;;;;;;4959524;28;20031;-86
2021/03/24 09:28:11;;;;;;;17.20;9.60;;;9.40;99.90;;;;;;4959208;28;20386;-86
2021/03/24 09:31:21;;;;;;;16.60;10.43;;;10.00;99.90;;;;;;4959243;28;20023;-86
2021/03/24 09:33:56;;;;;;;20.83;11.27;;;9.90;99.90;;;;;;4959776;28;20023;-86
2021/03/24 09:36:45;;;;;;;20.08;8.90;;;10.20;99.90;;;;;;4958825;28;20093;-87
2021/03/24 09:39:25;;;;;;;15.27;8.93;;;10.20;99.90;;;;;;4959484;28;20105;-89
2021/03/24 09:42:05;;;;;;;13.85;8.32;;;10.20;99.90;;;;;;4959813;28;20029;-89
2021/03/24 09:44:49;;;;;;;14.48;8.80;;;10.20;99.90;;;;;;4958898;28;20023;-88
2021/03/24 09:47:37;;;;;;;23.15;10.57;;;10.30;99.90;;;;;;4976700;28;20026;-90
2021/03/24 09:50:11;;;;;;;18.40;9.95;;;10.90;99.90;;;;;;4976434;28;20034;-89
2021/03/24 09:59:49;;;;;;;15.98;9.60;;;10.80;99.90;;;;;;4879454;28;20520;-89
2021/03/24 10:02:28;;;;;;;15.05;8.35;;;10.80;99.90;;;;;;4958717;28;20046;-88
2021/03/24 10:05:10;;;;;;;15.57;9.50;;;10.90;99.90;;;;;;4959243;28;20415;-90
2021/03/24 10:07:41;;;;;;;13.63;8.77;;;11.00;99.90;;;;;;4958478;28;20026;-87
2021/03/24 10:10:08;;;;;;;12.45;8.18;;;;;;;;;;4958981;28;20066;-90
2021/03/24 10:12:43;;;;;;;16.75;9.65;;;11.30;99.90;;;;;;4958954;28;20457;-86
2021/03/24 10:15:24;;;;;;;17.45;9.98;;;11.50;99.90;;;;;;4958300;28;20023;-87
2021/03/24 10:17:52;;;;;;;18.80;10.10;;;11.70;99.90;;;;;;4958097;28;20047;-88
2021/03/24 10:20:30;;;;;;;34.53;10.88;;;11.80;99.90;;;;;;4958416;28;20430;-89
2021/03/24 10:23:02;;;;;;;18.50;11.13;;;12.20;99.90;;;;;;4958356;28;20059;-89
2021/03/24 10:25:44;;;;;;;16.25;9.50;;;12.40;99.90;;;;;;4958284;28;20085;-88
2021/03/24 10:28:24;;;;;;;16.38;9.68;;;12.60;99.90;;;;;;4959190;28;20054;-89
2021/03/24 10:30:58;;;;;;;20.30;11.07;;;12.60;99.90;;;;;;4975792;28;20085;-89
2021/03/24 10:33:38;;;;;;;16.80;9.63;;;12.70;99.90;;;;;;4958505;28;20027;-89
2021/03/24 10:36:22;;;;;;;16.90;8.32;;;12.80;99.90;;;;;;4958387;28;20058;-89
2021/03/24 10:38:53;;;;;;;16.63;9.38;;;12.70;99.90;;;;;;4958258;28;20470;-89
2021/03/24 10:41:37;;;;;;;16.85;10.75;;;12.40;99.90;;;;;;4958610;28;20027;-90
2021/03/24 10:44:15;;;;;;;13.57;9.50;;;13.40;99.90;;;;;;4976525;28;20510;-90
2021/03/24 10:46:50;;;;;;;16.45;10.05;;;13.60;99.90;;;;;;4975461;28;20027;-90
2021/03/24 10:49:23;;;;;;;17.67;9.45;;;13.90;99.90;;;;;;4958430;28;20137;-90
2021/03/24 10:52:04;;;;;;;20.10;9.48;;;13.90;99.90;;;;;;4958833;28;20351;-88
2021/03/24 10:54:36;;;;;;;18.13;9.25;;;13.90;99.90;;;;;;4976434;28;20081;-90
2021/03/24 10:57:39;;;;;;;26.35;10.40;;;13.90;99.70;;;;;;4964348;28;20031;-90
2021/03/24 11:00:23;;;;;;;19.48;10.77;;;14.10;97.90;;;;;;4978571;28;20027;-89
2021/03/24 11:03:12;;;;;;;17.77;9.75;;;14.00;96.60;;;;;;4959462;28;20030;-89
2021/03/24 11:05:46;;;;;;;16.05;8.93;;;14.50;99.90;;;;;;4947242;28;20039;-89
2021/03/24 11:08:31;;;;;;;16.45;9.90;;;14.40;99.90;;;;;;4958050;28;20027;-89
2021/03/24 11:11:10;;;;;;;16.90;9.20;;;14.70;99.90;;;;;;4957844;28;20169;-89
2021/03/24 11:13:42;;;;;;;21.67;10.15;;;14.90;95.00;;;;;;4957912;28;20026;-90
2021/03/24 11:16:27;;;;;;;13.52;8.02;;;15.20;92.80;;;;;;4957842;28;20031;-89
2021/03/24 11:19:08;;;;;;;16.30;9.13;;;15.80;91.70;;;;;;4957668;28;20062;-88
2021/03/24 11:21:45;;;;;;;14.02;8.25;;;16.20;90.80;;;;;;4958006;28;20108;-89
2021/03/24 11:24:35;;;;;;;17.83;9.07;;;16.70;87.80;;;;;;4957648;28;20440;-89
2021/03/24 11:27:01;;;;;;;14.07;8.52;;;16.30;85.00;;;;;;4909909;28;20045;-88
2021/03/24 11:29:30;;;;;;;13.63;8.43;;;16.70;85.90;;;;;;4957795;28;20453;-88
2021/03/24 11:32:01;;;;;;;17.05;7.72;;;16.90;81.40;;;;;;4957604;28;20085;-86
2021/03/24 11:34:33;;;;;;;12.63;7.88;;;16.50;82.70;;;;;;4957500;28;20027;-89
2021/03/24 11:37:02;;;;;;;17.35;7.82;;;;;;;;;;4957087;28;20027;-88
2021/03/24 11:39:33;;;;;;;11.95;7.88;;;17.20;80.10;;;;;;4974714;28;20530;-88
2021/03/24 11:42:20;;;;;;;12.45;8.48;;;17.30;78.90;;;;;;4975051;28;20102;-88
2021/03/24 11:44:49;;;;;;;13.02;8.35;;;16.80;77.80;;;;;;4957442;28;20581;-87
2021/03/24 11:47:44;;;;;;;14.68;8.93;;;17.10;78.90;;;;;;4957324;28;20026;-87
2021/03/24 11:50:50;;;;;;;13.82;8.52;;;17.00;77.20;;;;;;4957259;28;20054;-85
2021/03/24 11:53:21;;;;;;;12.27;7.45;;;17.60;76.70;;;;;;4955794;28;20046;-87
2021/03/24 11:56:24;;;;;;;14.57;7.80;;;17.60;74.10;;;;;;4957344;28;20027;-87
2021/03/24 11:59:10;;;;;;;14.07;7.38;;;17.70;73.90;;;;;;4905113;28;20117;-87
2021/03/24 12:02:15;;;;;;;12.27;7.40;;;18.00;73.40;;;;;;4956333;28;20056;-87
2021/03/24 12:04:45;;;;;;;12.38;7.32;;;18.20;71.80;;;;;;4957882;28;20348;-87
2021/03/24 12:07:41;;;;;;;9.50;6.93;;;18.30;70.30;;;;;;4957994;28;20470;-87
2021/03/24 12:10:24;;;;;;;12.85;7.38;;;18.80;69.20;;;;;;4958408;28;20030;-88
2021/03/24 12:13:11;;;;;;;15.45;8.07;;;19.00;67.70;;;;;;4957438;28;20126;-87
2021/03/24 12:15:37;;;;;;;9.52;6.40;;;19.00;67.00;;;;;;4957490;28;20035;-88
2021/03/24 12:18:10;;;;;;;9.95;6.82;;;19.00;67.40;;;;;;4957493;28;20049;-85
2021/03/24 12:20:57;;;;;;;10.65;7.10;;;19.00;67.30;;;;;;4974980;28;20438;-87
2021/03/24 12:23:25;;;;;;;12.77;7.53;;;18.90;68.00;;;;;;4974451;28;20032;-88
2021/03/24 12:25:55;;;;;;;13.45;6.60;;;18.70;67.40;;;;;;4956921;28;20023;-88
2021/03/24 12:28:27;;;;;;;12.40;6.78;;;18.50;67.20;;;;;;4974398;28;20047;-89
2021/03/24 12:31:12;;;;;;;13.25;7.85;;;18.20;67.80;;;;;;4957841;28;20021;-86
2021/03/24 12:33:49;;;;;;;;;;;18.90;67.60;;;;;;4958326;28;20022;-90
2021/03/24 12:36:20;;;;;;;16.13;7.72;;;19.50;65.40;;;;;;4957887;28;20277;-90
2021/03/24 12:39:00;;;;;;;11.25;7.35;;;20.10;62.50;;;;;;4957162;28;20038;-90
2021/03/24 12:41:37;;;;;;;17.90;7.60;;;20.70;62.10;;;;;;4956980;28;20042;-89
2021/03/24 12:44:20;;;;;;;15.18;7.85;;;20.70;60.60;;;;;;4957405;28;20109;-89
2021/03/24 12:47:00;;;;;;;18.45;8.20;;;20.40;60.50;;;;;;4956802;28;20058;-89
2021/03/24 12:49:38;;;;;;;14.48;7.80;;;20.30;59.90;;;;;;4957921;28;20027;-90
2021/03/24 12:52:32;;;;;;;15.35;7.97;;;20.70;58.30;;;;;;4961071;28;20049;-90
2021/03/24 12:54:58;;;;;;;11.85;7.65;;;20.50;59.50;;;;;;4960324;28;20062;-89
2021/03/24 12:57:46;;;;;;;11.55;7.00;;;20.90;58.40;;;;;;4960179;28;20071;-88
2021/03/24 13:00:27;;;;;;;10.60;6.25;;;20.50;58.20;;;;;;4960658;28;20451;-88
2021/03/24 13:03:22;;;;;;;12.00;6.82;;;21.10;57.10;;;;;;4960236;28;20475;-87
2021/03/24 13:06:04;;;;;;;12.85;6.90;;;21.60;56.50;;;;;;4959957;28;20027;-87
2021/03/24 13:09:07;;;;;;;14.55;6.30;;;21.60;55.90;;;;;;4960014;28;20078;-86
2021/03/24 13:11:51;;;;;;;11.07;6.55;;;21.60;55.60;;;;;;4959915;28;20034;-86
2021/03/24 13:14:22;;;;;;;8.93;6.53;;;21.20;57.10;;;;;;4959870;28;20062;-86
2021/03/24 13:16:59;;;;;;;11.80;7.18;;;21.60;55.20;;;;;;4959742;28;20037;-87
2021/03/24 13:19:40;;;;;;;10.27;6.75;;;22.00;53.80;;;;;;4959752;28;20390;-87
2021/03/24 13:28:59;;;;;;;12.02;5.60;;;22.60;51.20;;;;;;4977109;28;20049;-86
2021/03/24 13:31:37;;;;;;;9.93;6.30;;;22.80;51.70;;;;;;4959462;28;20475;-90
2021/03/24 13:34:47;;;;;;;8.80;5.82;;;22.90;50.40;;;;;;4959511;28;20027;-89
2021/03/24 13:37:23;;;;;;;17.73;5.85;;;23.10;50.70;;;;;;4976953;28;20027;-89
2021/03/24 13:39:53;;;;;;;10.77;5.55;;;23.30;49.80;;;;;;4959590;28;20027;-86
2021/03/24 13:43:02;;;;;;;10.57;5.30;;;23.30;48.60;;;;;;4977088;28;20027;-85
2021/03/24 13:45:37;;;;;;;14.68;5.38;;;23.30;48.80;;;;;;4923760;28;20044;-85
2021/03/24 13:48:19;;;;;;;12.05;5.47;;;23.20;48.30;;;;;;4977348;28;20386;-85
2021/03/24 13:50:52;;;;;;;7.85;5.55;;;22.30;48.50;;;;;;4960935;28;20034;-85